sensor_id;sensor_type;location;lat;lon;timestamp;pressure;altitude;pressure_sealevel;temperature;humidity
21547;BME280;41275;51.912;4.388;2022-11-21T00:01:42;100588.59;;;13.33;52.28
21547;BME280;41275;51.912;4.388;2022-11-21T00:07:03;100575.75;;;13.03;52.38
21547;BME280;41275;51.912;4.388;2022-11-21T00:12:24;100582.56;;;12.94;52.38
21547;BME280;41275;51.912;4.388;2022-11-21T00:17:45;100568.81;;;12.80;52.54
21547;BME280;41275;51.912;4.388;2022-11-21T00:23:07;100560.66;;;12.65;52.74
21547;BME280;41275;51.912;4.388;2022-11-21T00:28:28;100559.13;;;12.47;53.01
21547;BME280;41275;51.912;4.388;2022-11-21T00:33:49;100553.81;;;12.47;53.02
21547;BME280;41275;51.912;4.388;2022-11-21T00:39:11;100555.09;;;12.44;52.98
21547;BME280;41275;51.912;4.388;2022-11-21T00:44:32;100554.81;;;12.24;52.97
21547;BME280;41275;51.912;4.388;2022-11-21T00:49:53;100557.09;;;12.15;53.37
21547;BME280;41275;51.912;4.388;2022-11-21T00:55:14;100572.13;;;12.26;53.40
21547;BME280;41275;51.912;4.388;2022-11-21T01:00:35;100558.34;;;12.29;53.63
21547;BME280;41275;51.912;4.388;2022-11-21T01:06:17;100555.25;;;12.55;53.58
21547;BME280;41275;51.912;4.388;2022-11-21T01:11:38;100560.88;;;12.58;53.62
21547;BME280;41275;51.912;4.388;2022-11-21T01:16:59;100572.25;;;12.37;53.71
21547;BME280;41275;51.912;4.388;2022-11-21T01:22:20;100550.63;;;12.28;54.14
21547;BME280;41275;51.912;4.388;2022-11-21T01:27:41;100540.97;;;12.22;54.18
21547;BME280;41275;51.912;4.388;2022-11-21T01:33:03;100546.97;;;12.12;53.80
21547;BME280;41275;51.912;4.388;2022-11-21T01:38:24;100539.50;;;11.92;54.24
21547;BME280;41275;51.912;4.388;2022-11-21T01:43:45;100544.16;;;11.85;54.19
21547;BME280;41275;51.912;4.388;2022-11-21T01:49:19;100536.19;;;11.68;54.42
21547;BME280;41275;51.912;4.388;2022-11-21T01:54:53;100544.84;;;11.64;54.09
21547;BME280;41275;51.912;4.388;2022-11-21T02:00:23;100538.00;;;11.51;54.53
21547;BME280;41275;51.912;4.388;2022-11-21T02:05:44;100541.88;;;11.60;54.25
21547;BME280;41275;51.912;4.388;2022-11-21T02:11:23;100550.69;;;11.66;54.04
21547;BME280;41275;51.912;4.388;2022-11-21T02:16:46;100561.09;;;11.67;54.20
21547;BME280;41275;51.912;4.388;2022-11-21T02:28:02;100543.72;;;11.76;54.18
21547;BME280;41275;51.912;4.388;2022-11-21T02:33:23;100549.50;;;11.73;54.60
21547;BME280;41275;51.912;4.388;2022-11-21T02:38:44;100555.44;;;11.64;54.53
21547;BME280;41275;51.912;4.388;2022-11-21T02:44:14;100540.50;;;11.58;54.50
21547;BME280;41275;51.912;4.388;2022-11-21T02:49:43;100546.16;;;11.33;54.20
21547;BME280;41275;51.912;4.388;2022-11-21T02:55:08;100533.34;;;11.13;54.41
21547;BME280;41275;51.912;4.388;2022-11-21T03:00:33;100532.28;;;10.97;54.71
21547;BME280;41275;51.912;4.388;2022-11-21T03:05:55;100533.53;;;10.94;54.66
21547;BME280;41275;51.912;4.388;2022-11-21T03:11:16;100522.72;;;10.84;54.58
21547;BME280;41275;51.912;4.388;2022-11-21T03:16:37;100515.63;;;10.85;54.94
21547;BME280;41275;51.912;4.388;2022-11-21T03:21:59;100515.63;;;10.85;54.97
21547;BME280;41275;51.912;4.388;2022-11-21T03:27:20;100508.47;;;10.85;55.11
21547;BME280;41275;51.912;4.388;2022-11-21T03:32:41;100513.72;;;10.97;55.09
21547;BME280;41275;51.912;4.388;2022-11-21T03:38:02;100507.47;;;11.03;55.29
21547;BME280;41275;51.912;4.388;2022-11-21T03:43:23;100505.47;;;10.93;55.00
21547;BME280;41275;51.912;4.388;2022-11-21T03:48:44;100501.00;;;10.82;54.58
21547;BME280;41275;51.912;4.388;2022-11-21T03:54:06;100492.47;;;10.80;55.45
21547;BME280;41275;51.912;4.388;2022-11-21T03:59:27;100495.09;;;10.92;55.52
21547;BME280;41275;51.912;4.388;2022-11-21T04:04:49;100488.09;;;10.86;55.11
21547;BME280;41275;51.912;4.388;2022-11-21T04:10:10;100488.84;;;10.69;55.23
21547;BME280;41275;51.912;4.388;2022-11-21T04:15:31;100486.75;;;10.71;55.58
21547;BME280;41275;51.912;4.388;2022-11-21T04:21:00;100488.31;;;10.84;55.49
21547;BME280;41275;51.912;4.388;2022-11-21T04:26:21;100494.47;;;10.73;55.35
21547;BME280;41275;51.912;4.388;2022-11-21T04:31:42;100490.50;;;10.59;55.31
21547;BME280;41275;51.912;4.388;2022-11-21T04:37:03;100479.22;;;10.51;55.60
21547;BME280;41275;51.912;4.388;2022-11-21T04:42:25;100450.97;;;10.40;55.50
21547;BME280;41275;51.912;4.388;2022-11-21T04:47:46;100447.41;;;10.35;55.96
21547;BME280;41275;51.912;4.388;2022-11-21T04:53:07;100438.88;;;10.44;56.05
21547;BME280;41275;51.912;4.388;2022-11-21T04:58:28;100448.63;;;10.55;56.07
21547;BME280;41275;51.912;4.388;2022-11-21T05:03:51;100439.41;;;10.58;55.58
21547;BME280;41275;51.912;4.388;2022-11-21T05:09:12;100438.44;;;10.64;55.98
21547;BME280;41275;51.912;4.388;2022-11-21T05:14:34;100423.53;;;10.58;55.83
21547;BME280;41275;51.912;4.388;2022-11-21T05:19:55;100422.03;;;10.62;56.02
21547;BME280;41275;51.912;4.388;2022-11-21T05:25:16;100418.22;;;10.87;55.92
21547;BME280;41275;51.912;4.388;2022-11-21T05:30:37;100419.63;;;11.06;55.72
21547;BME280;41275;51.912;4.388;2022-11-21T05:35:58;100390.75;;;11.21;55.67
21547;BME280;41275;51.912;4.388;2022-11-21T05:41:20;100397.66;;;11.22;55.36
21547;BME280;41275;51.912;4.388;2022-11-21T05:46:41;100391.16;;;11.30;55.46
21547;BME280;41275;51.912;4.388;2022-11-21T05:52:02;100392.75;;;11.48;55.81
21547;BME280;41275;51.912;4.388;2022-11-21T05:57:23;100396.34;;;11.59;55.71
21547;BME280;41275;51.912;4.388;2022-11-21T06:02:46;100378.03;;;11.57;55.90
21547;BME280;41275;51.912;4.388;2022-11-21T06:08:27;100381.16;;;11.54;55.69
21547;BME280;41275;51.912;4.388;2022-11-21T06:13:49;100363.09;;;11.51;56.03
21547;BME280;41275;51.912;4.388;2022-11-21T06:19:10;100369.03;;;11.58;55.97
21547;BME280;41275;51.912;4.388;2022-11-21T06:24:31;100367.59;;;11.67;55.80
21547;BME280;41275;51.912;4.388;2022-11-21T06:29:52;100356.63;;;11.80;56.18
21547;BME280;41275;51.912;4.388;2022-11-21T06:35:14;100346.47;;;11.94;55.79
21547;BME280;41275;51.912;4.388;2022-11-21T06:40:35;100332.19;;;11.95;56.17
21547;BME280;41275;51.912;4.388;2022-11-21T06:45:56;100319.66;;;11.91;55.88
21547;BME280;41275;51.912;4.388;2022-11-21T06:51:21;100328.94;;;11.71;56.23
21547;BME280;41275;51.912;4.388;2022-11-21T06:56:42;100325.03;;;11.57;56.36
21547;BME280;41275;51.912;4.388;2022-11-21T07:02:04;100315.81;;;11.43;56.38
21547;BME280;41275;51.912;4.388;2022-11-21T07:07:25;100319.84;;;11.45;56.82
21547;BME280;41275;51.912;4.388;2022-11-21T07:12:46;100322.06;;;11.53;56.96
21547;BME280;41275;51.912;4.388;2022-11-21T07:18:26;100322.22;;;11.64;56.90
21547;BME280;41275;51.912;4.388;2022-11-21T07:23:50;100321.84;;;11.77;56.84
21547;BME280;41275;51.912;4.388;2022-11-21T07:29:11;100316.47;;;11.72;56.64
21547;BME280;41275;51.912;4.388;2022-11-21T07:34:32;100315.81;;;11.60;56.79
21547;BME280;41275;51.912;4.388;2022-11-21T07:39:56;100309.88;;;11.52;56.95
21547;BME280;41275;51.912;4.388;2022-11-21T07:45:17;100306.47;;;11.57;57.50
21547;BME280;41275;51.912;4.388;2022-11-21T07:50:39;100308.75;;;11.70;57.43
21547;BME280;41275;51.912;4.388;2022-11-21T07:56:00;100302.22;;;11.95;57.28
21547;BME280;41275;51.912;4.388;2022-11-21T08:01:22;100300.66;;;12.26;57.37
21547;BME280;41275;51.912;4.388;2022-11-21T08:06:43;100285.97;;;12.40;57.38
21547;BME280;41275;51.912;4.388;2022-11-21T08:12:04;100274.13;;;12.53;57.65
21547;BME280;41275;51.912;4.388;2022-11-21T08:17:25;100268.91;;;12.63;57.72
21547;BME280;41275;51.912;4.388;2022-11-21T08:22:47;100254.03;;;12.62;57.73
21547;BME280;41275;51.912;4.388;2022-11-21T08:28:09;100259.38;;;12.67;57.35
21547;BME280;41275;51.912;4.388;2022-11-21T08:33:31;100258.59;;;12.67;57.02
21547;BME280;41275;51.912;4.388;2022-11-21T08:38:53;100259.94;;;12.69;57.17
21547;BME280;41275;51.912;4.388;2022-11-21T08:44:14;100259.22;;;12.79;56.98
21547;BME280;41275;51.912;4.388;2022-11-21T08:49:35;100253.69;;;12.86;56.51
21547;BME280;41275;51.912;4.388;2022-11-21T08:54:56;100245.75;;;12.91;56.58
21547;BME280;41275;51.912;4.388;2022-11-21T09:00:18;100234.66;;;13.04;56.49
21547;BME280;41275;51.912;4.388;2022-11-21T09:05:39;100217.81;;;13.25;55.97
21547;BME280;41275;51.912;4.388;2022-11-21T09:11:04;100213.63;;;13.40;55.62
21547;BME280;41275;51.912;4.388;2022-11-21T09:16:26;100208.06;;;13.46;55.72
21547;BME280;41275;51.912;4.388;2022-11-21T09:22:05;100206.81;;;13.64;55.24
21547;BME280;41275;51.912;4.388;2022-11-21T09:27:27;100203.13;;;13.75;55.47
21547;BME280;41275;51.912;4.388;2022-11-21T09:32:48;100207.66;;;13.90;54.93
21547;BME280;41275;51.912;4.388;2022-11-21T09:38:09;100198.13;;;13.99;54.57
21547;BME280;41275;51.912;4.388;2022-11-21T09:43:41;100198.91;;;14.00;54.75
21547;BME280;41275;51.912;4.388;2022-11-21T09:49:06;100193.91;;;14.19;54.55
21547;BME280;41275;51.912;4.388;2022-11-21T09:54:32;100190.69;;;14.42;53.82
21547;BME280;41275;51.912;4.388;2022-11-21T09:59:55;100172.31;;;14.41;53.53
21547;BME280;41275;51.912;4.388;2022-11-21T10:05:22;100158.50;;;14.59;53.37
21547;BME280;41275;51.912;4.388;2022-11-21T10:10:53;100146.50;;;14.67;53.24
21547;BME280;41275;51.912;4.388;2022-11-21T10:17:04;100141.41;;;14.76;52.65
21547;BME280;41275;51.912;4.388;2022-11-21T10:23:09;100147.28;;;14.72;52.63
21547;BME280;41275;51.912;4.388;2022-11-21T10:28:56;100132.91;;;14.68;51.84
21547;BME280;41275;51.912;4.388;2022-11-21T10:34:25;100136.91;;;14.66;51.88
21547;BME280;41275;51.912;4.388;2022-11-21T10:39:49;100135.31;;;14.70;51.81
21547;BME280;41275;51.912;4.388;2022-11-21T10:45:12;100125.72;;;14.74;51.62
21547;BME280;41275;51.912;4.388;2022-11-21T10:56:34;100125.41;;;14.81;51.02
21547;BME280;41275;51.912;4.388;2022-11-21T11:02:01;100100.63;;;14.80;51.21
21547;BME280;41275;51.912;4.388;2022-11-21T11:07:23;100088.91;;;14.86;50.86
21547;BME280;41275;51.912;4.388;2022-11-21T11:12:48;100077.72;;;14.84;50.51
21547;BME280;41275;51.912;4.388;2022-11-21T11:18:28;100061.44;;;14.91;50.60
21547;BME280;41275;51.912;4.388;2022-11-21T11:23:53;100052.91;;;14.94;49.80
21547;BME280;41275;51.912;4.388;2022-11-21T11:29:19;100043.53;;;15.07;50.03
21547;BME280;41275;51.912;4.388;2022-11-21T11:35:27;100034.72;;;15.06;49.67
21547;BME280;41275;51.912;4.388;2022-11-21T11:40:35;100011.53;;;15.07;49.65
21547;BME280;41275;51.912;4.388;2022-11-21T11:46:10;100000.25;;;15.20;49.48
21547;BME280;41275;51.912;4.388;2022-11-21T11:51:54;99997.69;;;15.44;49.21
21547;BME280;41275;51.912;4.388;2022-11-21T11:57:17;99975.66;;;15.67;48.73
21547;BME280;41275;51.912;4.388;2022-11-21T12:03:03;99959.13;;;15.94;48.31
21547;BME280;41275;51.912;4.388;2022-11-21T12:08:37;99953.63;;;16.10;47.54
21547;BME280;41275;51.912;4.388;2022-11-21T12:14:12;99932.56;;;16.08;47.19
21547;BME280;41275;51.912;4.388;2022-11-21T12:19:55;99904.16;;;16.17;47.13
21547;BME280;41275;51.912;4.388;2022-11-21T12:25:22;99887.50;;;16.26;46.19
21547;BME280;41275;51.912;4.388;2022-11-21T12:37:12;99861.16;;;16.00;46.45
21547;BME280;41275;51.912;4.388;2022-11-21T13:00:18;99782.66;;;15.82;47.83
21547;BME280;41275;51.912;4.388;2022-11-21T13:05:45;99788.91;;;15.91;47.41
21547;BME280;41275;51.912;4.388;2022-11-21T13:11:35;99767.66;;;16.05;46.79
21547;BME280;41275;51.912;4.388;2022-11-21T13:17:34;99760.38;;;15.92;47.02
21547;BME280;41275;51.912;4.388;2022-11-21T13:23:00;99748.63;;;15.93;46.82
21547;BME280;41275;51.912;4.388;2022-11-21T13:28:36;99736.66;;;15.90;46.44
21547;BME280;41275;51.912;4.388;2022-11-21T13:33:58;99713.53;;;15.62;46.80
21547;BME280;41275;51.912;4.388;2022-11-21T13:39:25;99714.16;;;15.54;46.81
21547;BME280;41275;51.912;4.388;2022-11-21T13:44:47;99706.59;;;15.42;46.89
21547;BME280;41275;51.912;4.388;2022-11-21T13:50:37;99697.34;;;15.34;46.96
21547;BME280;41275;51.912;4.388;2022-11-21T13:56:14;99684.41;;;15.22;46.50
21547;BME280;41275;51.912;4.388;2022-11-21T14:07:33;99663.34;;;15.02;47.24
21547;BME280;41275;51.912;4.388;2022-11-21T14:12:56;99667.66;;;14.98;47.46
21547;BME280;41275;51.912;4.388;2022-11-21T14:18:23;99657.50;;;15.00;47.65
21547;BME280;41275;51.912;4.388;2022-11-21T14:23:44;99648.59;;;15.10;48.19
21547;BME280;41275;51.912;4.388;2022-11-21T14:34:43;99639.44;;;15.16;48.23
21547;BME280;41275;51.912;4.388;2022-11-21T14:40:05;99635.06;;;15.06;48.89
21547;BME280;41275;51.912;4.388;2022-11-21T14:45:26;99627.28;;;15.10;48.77
21547;BME280;41275;51.912;4.388;2022-11-21T14:50:47;99602.78;;;15.08;48.59
21547;BME280;41275;51.912;4.388;2022-11-21T14:56:29;99590.44;;;14.93;48.83
21547;BME280;41275;51.912;4.388;2022-11-21T15:02:00;99577.53;;;14.81;49.38
21547;BME280;41275;51.912;4.388;2022-11-21T15:07:28;99583.53;;;14.92;49.62
21547;BME280;41275;51.912;4.388;2022-11-21T15:12:54;99577.13;;;14.93;49.35
21547;BME280;41275;51.912;4.388;2022-11-21T15:18:22;99559.06;;;14.90;49.55
21547;BME280;41275;51.912;4.388;2022-11-21T15:23:44;99549.16;;;14.71;49.72
21547;BME280;41275;51.912;4.388;2022-11-21T15:29:18;99544.13;;;14.70;50.40
21547;BME280;41275;51.912;4.388;2022-11-21T15:34:40;99531.41;;;14.62;50.26
21547;BME280;41275;51.912;4.388;2022-11-21T15:40:02;99507.84;;;14.50;50.19
21547;BME280;41275;51.912;4.388;2022-11-21T15:45:26;99524.94;;;14.44;50.28
21547;BME280;41275;51.912;4.388;2022-11-21T15:50:47;99510.78;;;14.48;50.83
21547;BME280;41275;51.912;4.388;2022-11-21T15:56:10;99499.81;;;14.55;50.42
21547;BME280;41275;51.912;4.388;2022-11-21T16:01:33;99483.00;;;14.60;50.93
21547;BME280;41275;51.912;4.388;2022-11-21T16:06:54;99461.56;;;14.46;51.07
21547;BME280;41275;51.912;4.388;2022-11-21T16:12:15;99459.16;;;14.49;51.32
21547;BME280;41275;51.912;4.388;2022-11-21T16:17:36;99443.91;;;14.55;50.88
21547;BME280;41275;51.912;4.388;2022-11-21T16:22:59;99434.34;;;14.54;51.21
21547;BME280;41275;51.912;4.388;2022-11-21T16:28:20;99426.94;;;14.51;51.03
21547;BME280;41275;51.912;4.388;2022-11-21T16:33:41;99416.31;;;14.46;51.45
21547;BME280;41275;51.912;4.388;2022-11-21T16:39:03;99408.63;;;14.44;51.54
21547;BME280;41275;51.912;4.388;2022-11-21T16:44:28;99406.19;;;14.48;51.24
21547;BME280;41275;51.912;4.388;2022-11-21T16:49:49;99411.34;;;14.39;51.10
21547;BME280;41275;51.912;4.388;2022-11-21T16:55:11;99399.69;;;14.35;51.38
21547;BME280;41275;51.912;4.388;2022-11-21T17:00:32;99385.59;;;14.35;51.43
21547;BME280;41275;51.912;4.388;2022-11-21T17:05:57;99367.47;;;14.37;51.30
21547;BME280;41275;51.912;4.388;2022-11-21T17:11:26;99357.34;;;14.39;51.60
21547;BME280;41275;51.912;4.388;2022-11-21T17:16:49;99341.38;;;14.39;51.40
21547;BME280;41275;51.912;4.388;2022-11-21T17:22:10;99335.97;;;14.44;51.75
21547;BME280;41275;51.912;4.388;2022-11-21T17:27:32;99322.16;;;14.42;51.44
21547;BME280;41275;51.912;4.388;2022-11-21T17:32:53;99314.47;;;14.40;51.87
21547;BME280;41275;51.912;4.388;2022-11-21T17:38:14;99305.59;;;14.45;51.69
21547;BME280;41275;51.912;4.388;2022-11-21T17:43:36;99290.41;;;14.51;51.34
21547;BME280;41275;51.912;4.388;2022-11-21T17:48:57;99289.00;;;14.53;51.70
21547;BME280;41275;51.912;4.388;2022-11-21T17:54:19;99282.53;;;14.59;51.62
21547;BME280;41275;51.912;4.388;2022-11-21T17:59:40;99275.63;;;14.58;51.63
21547;BME280;41275;51.912;4.388;2022-11-21T18:05:03;99269.22;;;14.59;51.40
21547;BME280;41275;51.912;4.388;2022-11-21T18:10:25;99258.06;;;14.57;51.65
21547;BME280;41275;51.912;4.388;2022-11-21T18:15:46;99236.34;;;14.50;51.91
21547;BME280;41275;51.912;4.388;2022-11-21T18:21:11;99242.03;;;14.43;51.87
21547;BME280;41275;51.912;4.388;2022-11-21T18:26:35;99238.63;;;14.38;51.77
21547;BME280;41275;51.912;4.388;2022-11-21T18:31:56;99222.75;;;14.33;52.30
21547;BME280;41275;51.912;4.388;2022-11-21T18:37:17;99212.19;;;14.28;52.53
21547;BME280;41275;51.912;4.388;2022-11-21T18:42:39;99207.97;;;14.27;52.61
21547;BME280;41275;51.912;4.388;2022-11-21T18:48:00;99188.91;;;14.19;52.85
21547;BME280;41275;51.912;4.388;2022-11-21T18:53:21;99184.47;;;14.15;53.10
21547;BME280;41275;51.912;4.388;2022-11-21T18:58:43;99172.75;;;14.16;53.24
21547;BME280;41275;51.912;4.388;2022-11-21T19:04:04;99166.63;;;14.15;53.46
21547;BME280;41275;51.912;4.388;2022-11-21T19:09:25;99156.69;;;14.21;53.67
21547;BME280;41275;51.912;4.388;2022-11-21T19:14:48;99161.72;;;14.22;53.57
21547;BME280;41275;51.912;4.388;2022-11-21T19:20:11;99157.78;;;14.20;53.93
21547;BME280;41275;51.912;4.388;2022-11-21T19:25:33;99153.81;;;14.17;53.73
21547;BME280;41275;51.912;4.388;2022-11-21T19:30:55;99145.06;;;14.17;53.48
21547;BME280;41275;51.912;4.388;2022-11-21T19:36:21;99133.63;;;14.16;53.54
21547;BME280;41275;51.912;4.388;2022-11-21T19:41:43;99120.00;;;14.18;53.68
21547;BME280;41275;51.912;4.388;2022-11-21T19:47:04;99102.56;;;14.12;53.47
21547;BME280;41275;51.912;4.388;2022-11-21T19:52:26;99100.19;;;14.10;53.99
21547;BME280;41275;51.912;4.388;2022-11-21T19:57:47;99081.09;;;14.08;53.68
21547;BME280;41275;51.912;4.388;2022-11-21T20:03:10;99061.97;;;14.06;53.46
21547;BME280;41275;51.912;4.388;2022-11-21T20:08:49;99060.97;;;14.02;54.04
21547;BME280;41275;51.912;4.388;2022-11-21T20:14:12;99056.25;;;13.99;54.06
21547;BME280;41275;51.912;4.388;2022-11-21T20:19:34;99046.09;;;14.01;54.35
21547;BME280;41275;51.912;4.388;2022-11-21T20:24:55;99042.94;;;13.99;54.19
21547;BME280;41275;51.912;4.388;2022-11-21T20:30:16;99025.13;;;13.99;54.52
21547;BME280;41275;51.912;4.388;2022-11-21T20:35:38;99017.63;;;14.02;54.25
21547;BME280;41275;51.912;4.388;2022-11-21T20:41:00;99009.66;;;14.02;54.47
21547;BME280;41275;51.912;4.388;2022-11-21T20:46:22;98988.16;;;13.98;54.46
21547;BME280;41275;51.912;4.388;2022-11-21T20:51:45;98995.34;;;13.97;54.74
21547;BME280;41275;51.912;4.388;2022-11-21T20:57:11;98994.06;;;13.95;54.79
21547;BME280;41275;51.912;4.388;2022-11-21T21:02:32;98981.75;;;13.85;54.99
21547;BME280;41275;51.912;4.388;2022-11-21T21:07:55;98981.44;;;13.87;55.19
21547;BME280;41275;51.912;4.388;2022-11-21T21:13:17;98982.25;;;13.87;55.11
21547;BME280;41275;51.912;4.388;2022-11-21T21:18:38;98987.84;;;13.86;55.20
21547;BME280;41275;51.912;4.388;2022-11-21T21:24:02;98975.63;;;13.85;54.79
21547;BME280;41275;51.912;4.388;2022-11-21T21:29:24;98990.81;;;13.84;55.00
21547;BME280;41275;51.912;4.388;2022-11-21T21:34:45;98989.41;;;13.87;55.26
21547;BME280;41275;51.912;4.388;2022-11-21T21:40:07;99001.47;;;13.98;54.80
21547;BME280;41275;51.912;4.388;2022-11-21T21:45:28;99002.97;;;14.04;54.88
21547;BME280;41275;51.912;4.388;2022-11-21T21:50:49;98997.44;;;14.00;54.57
21547;BME280;41275;51.912;4.388;2022-11-21T21:56:11;98986.78;;;14.00;55.07
21547;BME280;41275;51.912;4.388;2022-11-21T22:01:34;98991.22;;;14.05;55.00
21547;BME280;41275;51.912;4.388;2022-11-21T22:06:55;98994.00;;;14.14;55.37
21547;BME280;41275;51.912;4.388;2022-11-21T22:12:16;98996.19;;;14.25;54.86
21547;BME280;41275;51.912;4.388;2022-11-21T22:17:37;98996.88;;;14.31;55.13
21547;BME280;41275;51.912;4.388;2022-11-21T22:22:58;98986.81;;;14.42;54.75
21547;BME280;41275;51.912;4.388;2022-11-21T22:28:20;98972.25;;;14.39;54.68
21547;BME280;41275;51.912;4.388;2022-11-21T22:33:42;98972.63;;;14.33;55.28
21547;BME280;41275;51.912;4.388;2022-11-21T22:39:04;98966.22;;;14.20;55.22
21547;BME280;41275;51.912;4.388;2022-11-21T22:44:25;98963.53;;;14.06;55.33
21547;BME280;41275;51.912;4.388;2022-11-21T22:49:46;98954.94;;;13.82;55.18
21547;BME280;41275;51.912;4.388;2022-11-21T22:55:07;98949.09;;;13.66;55.53
21547;BME280;41275;51.912;4.388;2022-11-21T23:00:29;98945.50;;;13.75;55.82
21547;BME280;41275;51.912;4.388;2022-11-21T23:05:57;98952.38;;;13.77;55.79
21547;BME280;41275;51.912;4.388;2022-11-21T23:11:20;98949.06;;;13.98;55.58
21547;BME280;41275;51.912;4.388;2022-11-21T23:16:46;98951.75;;;14.12;55.48
21547;BME280;41275;51.912;4.388;2022-11-21T23:22:07;98959.22;;;13.96;55.62
21547;BME280;41275;51.912;4.388;2022-11-21T23:27:28;98962.81;;;13.73;55.51
21547;BME280;41275;51.912;4.388;2022-11-21T23:32:49;98971.63;;;13.55;55.61
21547;BME280;41275;51.912;4.388;2022-11-21T23:38:11;98960.16;;;13.40;55.99
21547;BME280;41275;51.912;4.388;2022-11-21T23:43:33;98959.53;;;13.30;55.98
21547;BME280;41275;51.912;4.388;2022-11-21T23:48:54;98962.81;;;13.21;56.46
21547;BME280;41275;51.912;4.388;2022-11-21T23:54:15;98958.66;;;13.15;56.60
21547;BME280;41275;51.912;4.388;2022-11-21T23:59:37;98959.22;;;13.12;56.53
